Kouwamaru — JD3211 — position and weather

sailwx.info

Track history (hours):
 
Tides and Currents Weather Stations Pressure Air Temp Water Temp Dewpoint Dewpoint Depression Visibility Wind Speed Wind Dir Waves Ship Positions

Kouwamaru

Last reported at 2018-Feb-24 05:12 UTC. Time now 2018-Feb-24 05:55 UTC.
Position N 34°42' E 139°07'.

Length 48 m; draft 3.2 m.

Type: Tanker. MMSI: 431002774.

Date/timePositionNaut miles runAvg speedWind from/ knotsBaromVisibWave heightAir tempDewpointWater temp
2018-Feb-24 05:12N 34°42' E 139°07'311.5
2018-Feb-24 04:59N 34°41' E 139°04'711.6
2018-Feb-24 04:23N 34°36' E 138°57'199 9.8
2018-Feb-23 08:11N 33°53' E 135°03'212.1
2018-Feb-23 08:00N 33°55' E 135°02'612.0
2018-Feb-23 07:30N 34°01' E 135°03'612.0
2018-Feb-23 07:01N 34°07' E 135°03'611.9
2018-Feb-23 06:30N 34°13' E 135°03'611.5
2018-Feb-23 06:01N 34°19' E 135°04'611.1
2018-Feb-23 05:30N 34°23' E 135°09'510.9
2018-Feb-23 05:00N 34°27' E 135°13'5 9.6
2018-Feb-23 04:30N 34°27' E 135°19'1 1.7
2018-Feb-23 04:00N 34°26' E 135°19'0 0.0
2018-Feb-23 03:30N 34°26' E 135°19'0 0.0
2018-Feb-23 02:59N 34°26' E 135°19'0 0.0
2018-Feb-23 02:30N 34°26' E 135°19'0 0.0
2018-Feb-23 01:59N 34°26' E 135°19'0 0.0
2018-Feb-23 01:30N 34°26' E 135°19'0 0.0
2018-Feb-23 00:59N 34°26' E 135°19'0 0.0
2018-Feb-23 00:30N 34°26' E 135°19'0 0.0
2018-Feb-23 00:00N 34°26' E 135°19'0 0.0
2018-Feb-22 23:29N 34°26' E 135°19'0 0.6
2018-Feb-22 23:00N 34°26' E 135°19'1 2.4
2018-Feb-22 22:30N 34°27' E 135°18'0 0.0
2018-Feb-22 21:57N 34°27' E 135°18'0 0.1
2018-Feb-22 21:30N 34°27' E 135°18'0 0.0
2018-Feb-22 21:00N 34°27' E 135°18'0 0.0
2018-Feb-22 20:30N 34°27' E 135°18'0 0.0
2018-Feb-22 19:57N 34°27' E 135°18'0 0.0
2018-Feb-22 19:29N 34°27' E 135°18'0 0.0
2018-Feb-22 19:00N 34°27' E 135°18'0 0.0
2018-Feb-22 18:30N 34°27' E 135°18'0 0.0
2018-Feb-22 18:00N 34°27' E 135°18'0 0.0
2018-Feb-22 17:30N 34°27' E 135°18'0 0.0
2018-Feb-22 17:00N 34°27' E 135°18'0 0.0
2018-Feb-22 16:30N 34°27' E 135°18'0 0.0
2018-Feb-22 16:00N 34°27' E 135°18'0 0.0
2018-Feb-22 15:30N 34°27' E 135°18'1 2.6
2018-Feb-22 15:01N 34°28' E 135°17'510.4
2018-Feb-22 14:30N 34°26' E 135°11'612.1
2018-Feb-22 14:00N 34°21' E 135°06'612.6
2018-Feb-22 13:30N 34°16' E 135°03'612.1
2018-Feb-22 13:00N 34°10' E 135°03'611.6
2018-Feb-22 12:29N 34°04' E 135°03'611.7
2018-Feb-22 12:00N 33°58' E 135°03'611.8
2018-Feb-22 11:30N 33°52' E 135°03'17210.0
2018-Feb-21 18:18N 34°31' E 138°25'411.0
2018-Feb-21 17:55N 34°32' E 138°30'511.1
2018-Feb-21 17:30N 34°33' E 138°35'610.9
2018-Feb-21 16:58N 34°34' E 138°42'510.9
2018-Feb-21 16:28N 34°35' E 138°49'510.5
2018-Feb-21 15:59N 34°36' E 138°55'610.4
2018-Feb-21 15:23N 34°39' E 139°01'512.3
2018-Feb-21 15:00N 34°43' E 139°04'611.8
2018-Feb-21 14:28N 34°48' E 139°09'511.2
2018-Feb-21 14:00N 34°51' E 139°14'611.2
2018-Feb-21 13:29N 34°55' E 139°19'610.8
2018-Feb-21 12:55N 34°59' E 139°25'510.9
2018-Feb-21 12:28N 35°01' E 139°31'511.4
2018-Feb-21 12:00N 35°04' E 139°36'611.9
2018-Feb-21 11:30N 35°08' E 139°42'611.8
2018-Feb-21 11:00N 35°13' E 139°46'510.9
2018-Feb-21 10:30N 35°18' E 139°44'611.1
2018-Feb-21 10:01N 35°23' E 139°42'510.8
2018-Feb-21 09:31N 35°27' E 139°47'611.4
2018-Feb-21 09:00N 35°30' E 139°52'611.1
2018-Feb-21 08:30N 35°32' E 139°59'510.6
2018-Feb-21 08:01N 35°35' E 140°04'0 0.1
2018-Feb-21 07:30N 35°35' E 140°04'0 0.0
2018-Feb-21 07:00N 35°35' E 140°04'0 0.1
2018-Feb-21 06:30N 35°35' E 140°04'0 0.0
2018-Feb-21 06:00N 35°35' E 140°04'2 3.6
2018-Feb-21 05:30N 35°36' E 140°05'0 0.0
2018-Feb-21 05:00N 35°36' E 140°05'0 0.0
2018-Feb-21 04:30N 35°36' E 140°05'0 0.0
2018-Feb-21 04:00N 35°36' E 140°05'0 0.0
2018-Feb-21 03:30N 35°36' E 140°05'0 0.0
2018-Feb-21 03:00N 35°36' E 140°05'0 0.0
2018-Feb-21 02:30N 35°36' E 140°05'0 0.0
2018-Feb-21 02:00N 35°36' E 140°05'0 0.0
2018-Feb-21 01:30N 35°36' E 140°05'0 0.0
2018-Feb-21 01:00N 35°36' E 140°05'0 0.0
2018-Feb-21 00:30N 35°36' E 140°05'0 0.1
2018-Feb-21 00:00N 35°36' E 140°05'2 3.5
2018-Feb-20 23:29N 35°35' E 140°04'0 0.0
2018-Feb-20 22:59N 35°35' E 140°04'0 0.0
2018-Feb-20 22:29N 35°35' E 140°04'0 0.0
2018-Feb-20 21:56N 35°35' E 140°04'0 0.0
2018-Feb-20 21:26N 35°35' E 140°04'0 0.0
2018-Feb-20 20:59N 35°35' E 140°04'0 0.0
2018-Feb-20 20:29N 35°35' E 140°04'0 0.0
2018-Feb-20 19:59N 35°35' E 140°04'0 0.1
2018-Feb-20 19:29N 35°35' E 140°04'0 0.0
2018-Feb-20 18:59N 35°35' E 140°04'0 0.0
2018-Feb-20 18:29N 35°35' E 140°04'0 0.0
2018-Feb-20 17:59N 35°35' E 140°04'0 0.0
2018-Feb-20 17:29N 35°35' E 140°04'0 0.1
2018-Feb-20 16:59N 35°35' E 140°04'0 0.0
2018-Feb-20 16:29N 35°35' E 140°04'0 0.0
2018-Feb-20 15:59N 35°35' E 140°04'0 0.1
2018-Feb-20 15:29N 35°35' E 140°04'0 0.1
2018-Feb-20 14:59N 35°35' E 140°04'0 0.1
2018-Feb-20 14:29N 35°35' E 140°04'0 0.0
2018-Feb-20 13:59N 35°35' E 140°04'0 0.0
2018-Feb-20 13:29N 35°35' E 140°04'0 0.0
2018-Feb-20 12:59N 35°35' E 140°04'4 8.3
2018-Feb-20 12:30N 35°33' E 139°60'511.1
2018-Feb-20 12:01N 35°30' E 139°54'611.0
2018-Feb-20 11:30N 35°26' E 139°49'510.7
2018-Feb-20 11:00N 35°22' E 139°45'5 9.9
2018-Feb-20 10:30N 35°17' E 139°46'610.8
2018-Feb-20 09:59N 35°12' E 139°47'1111.0
2018-Feb-20 09:00N 35°03' E 139°39'3411.4
2018-Feb-20 06:03N 34°42' E 139°07'010.4
2018-Feb-20 06:00N 34°42' E 139°06'711.0
2018-Feb-20 05:22N 34°38' E 138°59'811.4
2018-Feb-20 04:41N 34°34' E 138°51'193 9.4
2018-Feb-19 08:10N 33°52' E 135°03'211.2
2018-Feb-19 08:00N 33°54' E 135°02'611.8
2018-Feb-19 07:30N 34°00' E 135°02'612.0
2018-Feb-19 07:01N 34°06' E 135°03'612.0
2018-Feb-19 06:31N 34°12' E 135°03'612.6
2018-Feb-19 06:00N 34°18' E 135°04'612.0
2018-Feb-19 05:31N 34°23' E 135°08'611.5
2018-Feb-19 05:01N 34°27' E 135°13'5 9.8
2018-Feb-19 04:30N 34°26' E 135°19'1 1.0
2018-Feb-19 03:57N 34°26' E 135°19'0 0.0
2018-Feb-19 03:30N 34°26' E 135°19'0 0.0
2018-Feb-19 03:00N 34°26' E 135°19'0 0.0
2018-Feb-19 02:30N 34°26' E 135°19'0 0.0
2018-Feb-19 02:00N 34°26' E 135°19'0 0.0
2018-Feb-19 01:30N 34°26' E 135°19'0 0.0
2018-Feb-19 01:00N 34°26' E 135°19'0 0.0
2018-Feb-19 00:30N 34°26' E 135°19'0 0.0
2018-Feb-19 00:00N 34°26' E 135°19'0 0.0
2018-Feb-18 23:30N 34°26' E 135°19'0 0.3
2018-Feb-18 23:01N 34°26' E 135°19'1 2.6
2018-Feb-18 22:30N 34°27' E 135°18'3 6.9
2018-Feb-18 22:00N 34°31' E 135°19'611.6
2018-Feb-18 21:31N 34°36' E 135°18'611.5
2018-Feb-18 21:00N 34°42' E 135°18'1 1.8
2018-Feb-18 20:28N 34°43' E 135°18'0 0.0
2018-Feb-18 19:58N 34°43' E 135°18'0 0.0
2018-Feb-18 19:28N 34°43' E 135°18'0 0.0
2018-Feb-18 18:58N 34°43' E 135°18'0 0.0
2018-Feb-18 18:28N 34°43' E 135°18'0 0.0
2018-Feb-18 17:58N 34°43' E 135°18'0 0.0
2018-Feb-18 17:28N 34°43' E 135°18'0 0.0
2018-Feb-18 16:58N 34°43' E 135°18'0 0.0
2018-Feb-18 16:28N 34°43' E 135°18'0 0.0
2018-Feb-18 15:58N 34°43' E 135°18'0 0.0
2018-Feb-18 15:28N 34°43' E 135°18'0 0.0
2018-Feb-18 14:58N 34°43' E 135°18'0 0.0
2018-Feb-18 14:28N 34°43' E 135°18'0 0.0
2018-Feb-18 13:58N 34°43' E 135°18'0 0.0
2018-Feb-18 13:28N 34°43' E 135°18'0 0.0
2018-Feb-18 12:58N 34°43' E 135°18'0 0.0
2018-Feb-18 12:28N 34°43' E 135°18'0 0.0
2018-Feb-18 11:58N 34°43' E 135°18'0 0.0
2018-Feb-18 11:28N 34°43' E 135°18'0 0.1
2018-Feb-18 10:58N 34°43' E 135°18'0 0.1
2018-Feb-18 10:28N 34°43' E 135°18'0 0.1
2018-Feb-18 09:58N 34°43' E 135°18'0 0.1
2018-Feb-18 09:28N 34°43' E 135°18'0 0.0
2018-Feb-18 08:58N 34°43' E 135°18'0 0.0
2018-Feb-18 08:28N 34°43' E 135°18'0 0.0
2018-Feb-18 07:58N 34°43' E 135°18'0 0.0
2018-Feb-18 07:28N 34°43' E 135°18'0 0.0
2018-Feb-18 06:58N 34°43' E 135°18'0 0.0
2018-Feb-18 06:28N 34°43' E 135°18'0 0.0
2018-Feb-18 05:58N 34°43' E 135°18'0 0.0
2018-Feb-18 05:28N 34°43' E 135°18'0 0.0
2018-Feb-18 04:58N 34°43' E 135°18'0 0.0
2018-Feb-18 04:28N 34°43' E 135°18'0 0.0
2018-Feb-18 03:58N 34°43' E 135°18'0 0.0
2018-Feb-18 03:28N 34°43' E 135°18'0 0.0
2018-Feb-18 02:58N 34°43' E 135°18'0 0.0
2018-Feb-18 02:28N 34°43' E 135°18'0 0.0
2018-Feb-18 01:58N 34°43' E 135°18'0 0.0
2018-Feb-18 01:28N 34°43' E 135°18'0 0.0
2018-Feb-18 00:58N 34°43' E 135°18'0 0.0
2018-Feb-18 00:28N 34°43' E 135°18'0 0.0
2018-Feb-17 23:58N 34°43' E 135°18'0 0.0
2018-Feb-17 23:28N 34°43' E 135°18'0 0.0
2018-Feb-17 22:58N 34°43' E 135°18'0 0.0
2018-Feb-17 22:28N 34°43' E 135°18'0 0.0
2018-Feb-17 21:58N 34°43' E 135°18'0 0.0
2018-Feb-17 21:25N 34°43' E 135°18'0 0.0
2018-Feb-17 20:58N 34°43' E 135°18'0 0.0
2018-Feb-17 20:28N 34°43' E 135°18'0 0.0
2018-Feb-17 19:58N 34°43' E 135°18'0 0.0
2018-Feb-17 19:28N 34°43' E 135°18'0 0.0
2018-Feb-17 18:58N 34°43' E 135°18'0 0.0
2018-Feb-17 18:28N 34°43' E 135°18'0 0.0
2018-Feb-17 17:58N 34°43' E 135°18'0 0.0
2018-Feb-17 17:28N 34°43' E 135°18'0 0.0
2018-Feb-17 16:58N 34°43' E 135°18'0 0.0
2018-Feb-17 16:28N 34°43' E 135°18'0 0.0
2018-Feb-17 15:58N 34°43' E 135°18'0 0.0
2018-Feb-17 15:28N 34°43' E 135°18'0 0.0
2018-Feb-17 14:58N 34°43' E 135°18'0 0.0
2018-Feb-17 14:28N 34°43' E 135°18'0 0.0
2018-Feb-17 13:58N 34°43' E 135°18'0 0.1
2018-Feb-17 13:28N 34°43' E 135°18'0 0.1
2018-Feb-17 12:58N 34°43' E 135°18'0 0.0
2018-Feb-17 12:28N 34°43' E 135°18'0 0.0
2018-Feb-17 11:58N 34°43' E 135°18'0 0.0
2018-Feb-17 11:28N 34°43' E 135°18'0 0.0
2018-Feb-17 10:58N 34°43' E 135°18'0 0.0
2018-Feb-17 10:28N 34°43' E 135°18'0 0.0
2018-Feb-17 09:58N 34°43' E 135°18'0 0.0
2018-Feb-17 09:28N 34°43' E 135°18'0 0.0
2018-Feb-17 08:58N 34°43' E 135°18'0 0.0
2018-Feb-17 08:28N 34°43' E 135°18'0 0.0
2018-Feb-17 07:58N 34°43' E 135°18'0 0.0
2018-Feb-17 07:28N 34°43' E 135°18'0 0.0
2018-Feb-17 06:58N 34°43' E 135°18'0 0.0
2018-Feb-17 06:28N 34°43' E 135°18'0 0.0
2018-Feb-17 05:58N 34°43' E 135°18'0 0.0
2018-Feb-17 05:28N 34°43' E 135°18'0 0.0
2018-Feb-17 04:58N 34°43' E 135°18'0 0.0
2018-Feb-17 04:28N 34°43' E 135°18'0 0.0
2018-Feb-17 03:58N 34°43' E 135°18'0 0.0
2018-Feb-17 03:28N 34°43' E 135°18'0 0.0
2018-Feb-17 02:58N 34°43' E 135°18'0 0.0
2018-Feb-17 02:28N 34°43' E 135°18'0 0.0
2018-Feb-17 01:58N 34°43' E 135°18'0 0.0
2018-Feb-17 01:28N 34°43' E 135°18'0 0.0
2018-Feb-17 00:58N 34°43' E 135°18'0 0.0
2018-Feb-17 00:28N 34°43' E 135°18'0 0.0
2018-Feb-16 23:58N 34°43' E 135°18'0 0.0
2018-Feb-16 23:28N 34°43' E 135°18'0 0.0
2018-Feb-16 22:58N 34°43' E 135°18'0 0.0
2018-Feb-16 22:28N 34°43' E 135°18'0 0.0
2018-Feb-16 21:58N 34°43' E 135°18'0 0.0
2018-Feb-16 21:28N 34°43' E 135°18'0 0.0
2018-Feb-16 20:58N 34°43' E 135°18'0 0.0
2018-Feb-16 20:28N 34°43' E 135°18'0 0.0
2018-Feb-16 19:55N 34°43' E 135°18'0 0.0
2018-Feb-16 19:28N 34°43' E 135°18'0 0.0
2018-Feb-16 18:58N 34°43' E 135°18'0 0.0
2018-Feb-16 18:28N 34°43' E 135°18'0 0.0
2018-Feb-16 17:58N 34°43' E 135°18'0 0.0
2018-Feb-16 17:28N 34°43' E 135°18'0 0.0
2018-Feb-16 16:55N 34°43' E 135°18'0 0.0
2018-Feb-16 16:25N 34°43' E 135°18'0 0.0
2018-Feb-16 15:58N 34°43' E 135°18'0 0.0
2018-Feb-16 15:28N 34°43' E 135°18'0 0.0
2018-Feb-16 14:58N 34°43' E 135°18'0 0.0
2018-Feb-16 14:28N 34°43' E 135°18'0 0.0
2018-Feb-16 13:58N 34°43' E 135°18'0 0.0
2018-Feb-16 13:28N 34°43' E 135°18'0 0.0
2018-Feb-16 12:58N 34°43' E 135°18'0 0.0
2018-Feb-16 12:28N 34°43' E 135°18'0 0.0
2018-Feb-16 11:58N 34°43' E 135°18'0 0.0
2018-Feb-16 11:28N 34°43' E 135°18'0 0.0
2018-Feb-16 10:55N 34°43' E 135°18'0 0.0
2018-Feb-16 10:28N 34°43' E 135°18'0 0.0
2018-Feb-16 09:58N 34°43' E 135°18'0 0.0
2018-Feb-16 09:28N 34°43' E 135°18'0 0.0
2018-Feb-16 08:58N 34°43' E 135°18'0 0.0
2018-Feb-16 08:28N 34°43' E 135°18'0 0.0
2018-Feb-16 07:58N 34°43' E 135°18'0 0.0
2018-Feb-16 07:28N 34°43' E 135°18'0 0.0
2018-Feb-16 06:58N 34°43' E 135°18'0 0.0
2018-Feb-16 06:28N 34°43' E 135°18'0 0.0
2018-Feb-16 05:55N 34°43' E 135°18'0 0.0
2018-Feb-16 05:28N 34°43' E 135°18'0 0.0
2018-Feb-16 04:55N 34°43' E 135°18'0 0.0
2018-Feb-16 04:28N 34°43' E 135°18'0 0.0
2018-Feb-16 03:58N 34°43' E 135°18'0 0.0
2018-Feb-16 03:28N 34°43' E 135°18'0 0.0
2018-Feb-16 02:58N 34°43' E 135°18'2 4.4
2018-Feb-16 02:30N 34°41' E 135°18'5 9.2
2018-Feb-16 02:00N 34°36' E 135°19'510.5
2018-Feb-16 01:30N 34°31' E 135°19'4 6.9
2018-Feb-16 00:57N 34°27' E 135°19'0 0.1
2018-Feb-16 00:30N 34°27' E 135°19'0 0.0
2018-Feb-16 00:00N 34°27' E 135°19'0 0.0
2018-Feb-15 23:17N 34°27' E 135°19'0 0.0
2018-Feb-15 22:59N 34°27' E 135°19'0 0.1
2018-Feb-15 22:29N 34°27' E 135°19'0 0.1
2018-Feb-15 22:00N 34°27' E 135°19'0 0.1
2018-Feb-15 21:27N 34°27' E 135°19'0 0.0
2018-Feb-15 20:59N 34°27' E 135°19'0 0.1
2018-Feb-15 20:29N 34°27' E 135°19'0 0.0
2018-Feb-15 19:56N 34°27' E 135°19'0 0.1
2018-Feb-15 19:30N 34°27' E 135°19'0 0.0
2018-Feb-15 18:59N 34°27' E 135°19'0 0.0
2018-Feb-15 18:26N 34°27' E 135°19'0 0.0
2018-Feb-15 17:57N 34°27' E 135°19'0 0.0
2018-Feb-15 17:27N 34°27' E 135°19'0 0.0
2018-Feb-15 16:56N 34°27' E 135°19'0 0.1
2018-Feb-15 16:29N 34°27' E 135°19'0 0.1
2018-Feb-15 15:59N 34°27' E 135°19'0 0.0
2018-Feb-15 15:29N 34°27' E 135°19'0 0.0
2018-Feb-15 14:59N 34°27' E 135°19'0 0.1
2018-Feb-15 14:29N 34°27' E 135°19'0 0.0
2018-Feb-15 13:59N 34°27' E 135°19'0 0.0
2018-Feb-15 13:29N 34°27' E 135°19'0 0.0
2018-Feb-15 12:57N 34°27' E 135°19'0 0.0
2018-Feb-15 12:29N 34°27' E 135°19'0 0.0
2018-Feb-15 11:56N 34°27' E 135°19'0 0.0
2018-Feb-15 11:29N 34°27' E 135°19'0 0.0
2018-Feb-15 10:59N 34°27' E 135°19'0 0.0
2018-Feb-15 10:29N 34°27' E 135°19'0 0.0
2018-Feb-15 09:59N 34°27' E 135°19'0 0.0
2018-Feb-15 09:29N 34°27' E 135°19'0 0.0
2018-Feb-15 08:59N 34°27' E 135°19'0 0.0
2018-Feb-15 08:29N 34°27' E 135°19'0 0.1
2018-Feb-15 07:59N 34°27' E 135°19'1 2.8
2018-Feb-15 07:30N 34°29' E 135°18'611.3
2018-Feb-15 07:00N 34°34' E 135°18'511.0
2018-Feb-15 06:31N 34°40' E 135°18'2 3.8
2018-Feb-15 05:58N 34°42' E 135°19'0 0.0
2018-Feb-15 05:28N 34°42' E 135°19'0 0.0
2018-Feb-15 04:58N 34°42' E 135°19'0 0.0
2018-Feb-15 04:28N 34°42' E 135°19'0 0.1
2018-Feb-15 04:00N 34°42' E 135°19'1 1.3
2018-Feb-15 03:28N 34°42' E 135°18'0 0.0
2018-Feb-15 02:58N 34°42' E 135°18'0 0.0
2018-Feb-15 02:28N 34°42' E 135°18'0 0.0
2018-Feb-15 01:58N 34°42' E 135°18'0 0.0
2018-Feb-15 01:28N 34°42' E 135°18'0 0.0
2018-Feb-15 00:58N 34°42' E 135°18'0 0.0
2018-Feb-15 00:28N 34°42' E 135°18'0 0.0
2018-Feb-14 23:58N 34°42' E 135°18'0 0.0
2018-Feb-14 23:28N 34°42' E 135°18'0 0.0
2018-Feb-14 22:58N 34°42' E 135°18'0 0.0
2018-Feb-14 22:28N 34°42' E 135°18'0 1.0
2018-Feb-14 22:00N 34°42' E 135°18'0 0.5
2018-Feb-14 21:28N 34°42' E 135°19'0 0.0
2018-Feb-14 20:58N 34°42' E 135°19'0 0.0
2018-Feb-14 20:28N 34°42' E 135°19'0 0.0
2018-Feb-14 19:58N 34°42' E 135°19'0 0.0
2018-Feb-14 19:28N 34°42' E 135°19'0 0.0
2018-Feb-14 18:58N 34°42' E 135°19'0 0.1
2018-Feb-14 18:28N 34°42' E 135°19'0 0.1
2018-Feb-14 17:58N 34°42' E 135°19'0 0.0
2018-Feb-14 17:28N 34°42' E 135°19'0 0.0
2018-Feb-14 16:58N 34°42' E 135°19'0 0.1
2018-Feb-14 16:28N 34°42' E 135°19'3 7.3
2018-Feb-14 16:00N 34°39' E 135°17'510.8
2018-Feb-14 15:30N 34°36' E 135°12'611.5
2018-Feb-14 15:00N 34°35' E 135°05'612.5
2018-Feb-14 14:30N 34°36' E 134°57'612.2
2018-Feb-14 14:00N 34°34' E 134°51'611.3
2018-Feb-14 13:30N 34°32' E 134°44'611.4
2018-Feb-14 13:00N 34°30' E 134°38'611.3
2018-Feb-14 12:30N 34°27' E 134°32'611.3
2018-Feb-14 12:00N 34°25' E 134°25'  
Track history (hours):
 
Tides and Currents Weather Stations Pressure Air Temp Water Temp Dewpoint Dewpoint Depression Visibility Wind Speed Wind Dir Waves Ship Positions

Kouwamaru

Last reported at 2018-Feb-24 05:12 UTC. Time now 2018-Feb-24 05:55 UTC.
Position N 34°42' E 139°07'.

Length 48 m; draft 3.2 m.

Type: Tanker. MMSI: 431002774.

Date/timePositionNaut miles runAvg speedWind from/ knotsBaromVisibWave heightAir tempDewpointWater temp
2018-Feb-24 05:12N 34°42' E 139°07'311.5
2018-Feb-24 04:59N 34°41' E 139°04'711.6
2018-Feb-24 04:23N 34°36' E 138°57'199 9.8
2018-Feb-23 08:11N 33°53' E 135°03'212.1
2018-Feb-23 08:00N 33°55' E 135°02'612.0
2018-Feb-23 07:30N 34°01' E 135°03'612.0
2018-Feb-23 07:01N 34°07' E 135°03'611.9
2018-Feb-23 06:30N 34°13' E 135°03'611.5
2018-Feb-23 06:01N 34°19' E 135°04'611.1
2018-Feb-23 05:30N 34°23' E 135°09'510.9
2018-Feb-23 05:00N 34°27' E 135°13'5 9.6
2018-Feb-23 04:30N 34°27' E 135°19'1 1.7
2018-Feb-23 04:00N 34°26' E 135°19'0 0.0
2018-Feb-23 03:30N 34°26' E 135°19'0 0.0
2018-Feb-23 02:59N 34°26' E 135°19'0 0.0
2018-Feb-23 02:30N 34°26' E 135°19'0 0.0
2018-Feb-23 01:59N 34°26' E 135°19'0 0.0
2018-Feb-23 01:30N 34°26' E 135°19'0 0.0
2018-Feb-23 00:59N 34°26' E 135°19'0 0.0
2018-Feb-23 00:30N 34°26' E 135°19'0 0.0
2018-Feb-23 00:00N 34°26' E 135°19'0 0.0
2018-Feb-22 23:29N 34°26' E 135°19'0 0.6
2018-Feb-22 23:00N 34°26' E 135°19'1 2.4
2018-Feb-22 22:30N 34°27' E 135°18'0 0.0
2018-Feb-22 21:57N 34°27' E 135°18'0 0.1
2018-Feb-22 21:30N 34°27' E 135°18'0 0.0
2018-Feb-22 21:00N 34°27' E 135°18'0 0.0
2018-Feb-22 20:30N 34°27' E 135°18'0 0.0
2018-Feb-22 19:57N 34°27' E 135°18'0 0.0
2018-Feb-22 19:29N 34°27' E 135°18'0 0.0
2018-Feb-22 19:00N 34°27' E 135°18'0 0.0
2018-Feb-22 18:30N 34°27' E 135°18'0 0.0
2018-Feb-22 18:00N 34°27' E 135°18'0 0.0
2018-Feb-22 17:30N 34°27' E 135°18'0 0.0
2018-Feb-22 17:00N 34°27' E 135°18'0 0.0
2018-Feb-22 16:30N 34°27' E 135°18'0 0.0
2018-Feb-22 16:00N 34°27' E 135°18'0 0.0
2018-Feb-22 15:30N 34°27' E 135°18'1 2.6
2018-Feb-22 15:01N 34°28' E 135°17'510.4
2018-Feb-22 14:30N 34°26' E 135°11'612.1
2018-Feb-22 14:00N 34°21' E 135°06'612.6
2018-Feb-22 13:30N 34°16' E 135°03'612.1
2018-Feb-22 13:00N 34°10' E 135°03'611.6
2018-Feb-22 12:29N 34°04' E 135°03'611.7
2018-Feb-22 12:00N 33°58' E 135°03'611.8
2018-Feb-22 11:30N 33°52' E 135°03'17210.0
2018-Feb-21 18:18N 34°31' E 138°25'411.0
2018-Feb-21 17:55N 34°32' E 138°30'511.1
2018-Feb-21 17:30N 34°33' E 138°35'610.9
2018-Feb-21 16:58N 34°34' E 138°42'510.9
2018-Feb-21 16:28N 34°35' E 138°49'510.5
2018-Feb-21 15:59N 34°36' E 138°55'610.4
2018-Feb-21 15:23N 34°39' E 139°01'512.3
2018-Feb-21 15:00N 34°43' E 139°04'611.8
2018-Feb-21 14:28N 34°48' E 139°09'511.2
2018-Feb-21 14:00N 34°51' E 139°14'611.2
2018-Feb-21 13:29N 34°55' E 139°19'610.8
2018-Feb-21 12:55N 34°59' E 139°25'510.9
2018-Feb-21 12:28N 35°01' E 139°31'511.4
2018-Feb-21 12:00N 35°04' E 139°36'611.9
2018-Feb-21 11:30N 35°08' E 139°42'611.8
2018-Feb-21 11:00N 35°13' E 139°46'510.9
2018-Feb-21 10:30N 35°18' E 139°44'611.1
2018-Feb-21 10:01N 35°23' E 139°42'510.8
2018-Feb-21 09:31N 35°27' E 139°47'611.4
2018-Feb-21 09:00N 35°30' E 139°52'611.1
2018-Feb-21 08:30N 35°32' E 139°59'510.6
2018-Feb-21 08:01N 35°35' E 140°04'0 0.1
2018-Feb-21 07:30N 35°35' E 140°04'0 0.0
2018-Feb-21 07:00N 35°35' E 140°04'0 0.1
2018-Feb-21 06:30N 35°35' E 140°04'0 0.0
2018-Feb-21 06:00N 35°35' E 140°04'2 3.6
2018-Feb-21 05:30N 35°36' E 140°05'0 0.0
2018-Feb-21 05:00N 35°36' E 140°05'0 0.0
2018-Feb-21 04:30N 35°36' E 140°05'0 0.0
2018-Feb-21 04:00N 35°36' E 140°05'0 0.0
2018-Feb-21 03:30N 35°36' E 140°05'0 0.0
2018-Feb-21 03:00N 35°36' E 140°05'0 0.0
2018-Feb-21 02:30N 35°36' E 140°05'0 0.0
2018-Feb-21 02:00N 35°36' E 140°05'0 0.0
2018-Feb-21 01:30N 35°36' E 140°05'0 0.0
2018-Feb-21 01:00N 35°36' E 140°05'0 0.0
2018-Feb-21 00:30N 35°36' E 140°05'0 0.1
2018-Feb-21 00:00N 35°36' E 140°05'2 3.5
2018-Feb-20 23:29N 35°35' E 140°04'0 0.0
2018-Feb-20 22:59N 35°35' E 140°04'0 0.0
2018-Feb-20 22:29N 35°35' E 140°04'0 0.0
2018-Feb-20 21:56N 35°35' E 140°04'0 0.0
2018-Feb-20 21:26N 35°35' E 140°04'0 0.0
2018-Feb-20 20:59N 35°35' E 140°04'0 0.0
2018-Feb-20 20:29N 35°35' E 140°04'0 0.0
2018-Feb-20 19:59N 35°35' E 140°04'0 0.1
2018-Feb-20 19:29N 35°35' E 140°04'0 0.0
2018-Feb-20 18:59N 35°35' E 140°04'0 0.0
2018-Feb-20 18:29N 35°35' E 140°04'0 0.0
2018-Feb-20 17:59N 35°35' E 140°04'0 0.0
2018-Feb-20 17:29N 35°35' E 140°04'0 0.1
2018-Feb-20 16:59N 35°35' E 140°04'0 0.0
2018-Feb-20 16:29N 35°35' E 140°04'0 0.0
2018-Feb-20 15:59N 35°35' E 140°04'0 0.1
2018-Feb-20 15:29N 35°35' E 140°04'0 0.1
2018-Feb-20 14:59N 35°35' E 140°04'0 0.1
2018-Feb-20 14:29N 35°35' E 140°04'0 0.0
2018-Feb-20 13:59N 35°35' E 140°04'0 0.0
2018-Feb-20 13:29N 35°35' E 140°04'0 0.0
2018-Feb-20 12:59N 35°35' E 140°04'4 8.3
2018-Feb-20 12:30N 35°33' E 139°60'511.1
2018-Feb-20 12:01N 35°30' E 139°54'611.0
2018-Feb-20 11:30N 35°26' E 139°49'510.7
2018-Feb-20 11:00N 35°22' E 139°45'5 9.9
2018-Feb-20 10:30N 35°17' E 139°46'610.8
2018-Feb-20 09:59N 35°12' E 139°47'1111.0
2018-Feb-20 09:00N 35°03' E 139°39'3411.4
2018-Feb-20 06:03N 34°42' E 139°07'010.4
2018-Feb-20 06:00N 34°42' E 139°06'711.0
2018-Feb-20 05:22N 34°38' E 138°59'811.4
2018-Feb-20 04:41N 34°34' E 138°51'193 9.4
2018-Feb-19 08:10N 33°52' E 135°03'211.2
2018-Feb-19 08:00N 33°54' E 135°02'611.8
2018-Feb-19 07:30N 34°00' E 135°02'612.0
2018-Feb-19 07:01N 34°06' E 135°03'612.0
2018-Feb-19 06:31N 34°12' E 135°03'612.6
2018-Feb-19 06:00N 34°18' E 135°04'612.0
2018-Feb-19 05:31N 34°23' E 135°08'611.5
2018-Feb-19 05:01N 34°27' E 135°13'5 9.8
2018-Feb-19 04:30N 34°26' E 135°19'1 1.0
2018-Feb-19 03:57N 34°26' E 135°19'0 0.0
2018-Feb-19 03:30N 34°26' E 135°19'0 0.0
2018-Feb-19 03:00N 34°26' E 135°19'0 0.0
2018-Feb-19 02:30N 34°26' E 135°19'0 0.0
2018-Feb-19 02:00N 34°26' E 135°19'0 0.0
2018-Feb-19 01:30N 34°26' E 135°19'0 0.0
2018-Feb-19 01:00N 34°26' E 135°19'0 0.0
2018-Feb-19 00:30N 34°26' E 135°19'0 0.0
2018-Feb-19 00:00N 34°26' E 135°19'0 0.0
2018-Feb-18 23:30N 34°26' E 135°19'0 0.3
2018-Feb-18 23:01N 34°26' E 135°19'1 2.6
2018-Feb-18 22:30N 34°27' E 135°18'3 6.9
2018-Feb-18 22:00N 34°31' E 135°19'611.6
2018-Feb-18 21:31N 34°36' E 135°18'611.5
2018-Feb-18 21:00N 34°42' E 135°18'1 1.8
2018-Feb-18 20:28N 34°43' E 135°18'0 0.0
2018-Feb-18 19:58N 34°43' E 135°18'0 0.0
2018-Feb-18 19:28N 34°43' E 135°18'0 0.0
2018-Feb-18 18:58N 34°43' E 135°18'0 0.0
2018-Feb-18 18:28N 34°43' E 135°18'0 0.0
2018-Feb-18 17:58N 34°43' E 135°18'0 0.0
2018-Feb-18 17:28N 34°43' E 135°18'0 0.0
2018-Feb-18 16:58N 34°43' E 135°18'0 0.0
2018-Feb-18 16:28N 34°43' E 135°18'0 0.0
2018-Feb-18 15:58N 34°43' E 135°18'0 0.0
2018-Feb-18 15:28N 34°43' E 135°18'0 0.0
2018-Feb-18 14:58N 34°43' E 135°18'0 0.0
2018-Feb-18 14:28N 34°43' E 135°18'0 0.0
2018-Feb-18 13:58N 34°43' E 135°18'0 0.0
2018-Feb-18 13:28N 34°43' E 135°18'0 0.0
2018-Feb-18 12:58N 34°43' E 135°18'0 0.0
2018-Feb-18 12:28N 34°43' E 135°18'0 0.0
2018-Feb-18 11:58N 34°43' E 135°18'0 0.0
2018-Feb-18 11:28N 34°43' E 135°18'0 0.1
2018-Feb-18 10:58N 34°43' E 135°18'0 0.1
2018-Feb-18 10:28N 34°43' E 135°18'0 0.1
2018-Feb-18 09:58N 34°43' E 135°18'0 0.1
2018-Feb-18 09:28N 34°43' E 135°18'0 0.0
2018-Feb-18 08:58N 34°43' E 135°18'0 0.0
2018-Feb-18 08:28N 34°43' E 135°18'0 0.0
2018-Feb-18 07:58N 34°43' E 135°18'0 0.0
2018-Feb-18 07:28N 34°43' E 135°18'0 0.0
2018-Feb-18 06:58N 34°43' E 135°18'0 0.0
2018-Feb-18 06:28N 34°43' E 135°18'0 0.0
2018-Feb-18 05:58N 34°43' E 135°18'0 0.0
2018-Feb-18 05:28N 34°43' E 135°18'0 0.0
2018-Feb-18 04:58N 34°43' E 135°18'0 0.0
2018-Feb-18 04:28N 34°43' E 135°18'0 0.0
2018-Feb-18 03:58N 34°43' E 135°18'0 0.0
2018-Feb-18 03:28N 34°43' E 135°18'0 0.0
2018-Feb-18 02:58N 34°43' E 135°18'0 0.0
2018-Feb-18 02:28N 34°43' E 135°18'0 0.0
2018-Feb-18 01:58N 34°43' E 135°18'0 0.0
2018-Feb-18 01:28N 34°43' E 135°18'0 0.0
2018-Feb-18 00:58N 34°43' E 135°18'0 0.0
2018-Feb-18 00:28N 34°43' E 135°18'0 0.0
2018-Feb-17 23:58N 34°43' E 135°18'0 0.0
2018-Feb-17 23:28N 34°43' E 135°18'0 0.0
2018-Feb-17 22:58N 34°43' E 135°18'0 0.0
2018-Feb-17 22:28N 34°43' E 135°18'0 0.0
2018-Feb-17 21:58N 34°43' E 135°18'0 0.0
2018-Feb-17 21:25N 34°43' E 135°18'0 0.0
2018-Feb-17 20:58N 34°43' E 135°18'0 0.0
2018-Feb-17 20:28N 34°43' E 135°18'0 0.0
2018-Feb-17 19:58N 34°43' E 135°18'0 0.0
2018-Feb-17 19:28N 34°43' E 135°18'0 0.0
2018-Feb-17 18:58N 34°43' E 135°18'0 0.0
2018-Feb-17 18:28N 34°43' E 135°18'0 0.0
2018-Feb-17 17:58N 34°43' E 135°18'0 0.0
2018-Feb-17 17:28N 34°43' E 135°18'0 0.0
2018-Feb-17 16:58N 34°43' E 135°18'0 0.0
2018-Feb-17 16:28N 34°43' E 135°18'0 0.0
2018-Feb-17 15:58N 34°43' E 135°18'0 0.0
2018-Feb-17 15:28N 34°43' E 135°18'0 0.0
2018-Feb-17 14:58N 34°43' E 135°18'0 0.0
2018-Feb-17 14:28N 34°43' E 135°18'0 0.0
2018-Feb-17 13:58N 34°43' E 135°18'0 0.1
2018-Feb-17 13:28N 34°43' E 135°18'0 0.1
2018-Feb-17 12:58N 34°43' E 135°18'0 0.0
2018-Feb-17 12:28N 34°43' E 135°18'0 0.0
2018-Feb-17 11:58N 34°43' E 135°18'0 0.0
2018-Feb-17 11:28N 34°43' E 135°18'0 0.0
2018-Feb-17 10:58N 34°43' E 135°18'0 0.0
2018-Feb-17 10:28N 34°43' E 135°18'0 0.0
2018-Feb-17 09:58N 34°43' E 135°18'0 0.0
2018-Feb-17 09:28N 34°43' E 135°18'0 0.0
2018-Feb-17 08:58N 34°43' E 135°18'0 0.0
2018-Feb-17 08:28N 34°43' E 135°18'0 0.0
2018-Feb-17 07:58N 34°43' E 135°18'0 0.0
2018-Feb-17 07:28N 34°43' E 135°18'0 0.0
2018-Feb-17 06:58N 34°43' E 135°18'0 0.0
2018-Feb-17 06:28N 34°43' E 135°18'0 0.0
2018-Feb-17 05:58N 34°43' E 135°18'0 0.0
2018-Feb-17 05:28N 34°43' E 135°18'0 0.0
2018-Feb-17 04:58N 34°43' E 135°18'0 0.0
2018-Feb-17 04:28N 34°43' E 135°18'0 0.0
2018-Feb-17 03:58N 34°43' E 135°18'0 0.0
2018-Feb-17 03:28N 34°43' E 135°18'0 0.0
2018-Feb-17 02:58N 34°43' E 135°18'0 0.0
2018-Feb-17 02:28N 34°43' E 135°18'0 0.0
2018-Feb-17 01:58N 34°43' E 135°18'0 0.0
2018-Feb-17 01:28N 34°43' E 135°18'0 0.0
2018-Feb-17 00:58N 34°43' E 135°18'0 0.0
2018-Feb-17 00:28N 34°43' E 135°18'0 0.0
2018-Feb-16 23:58N 34°43' E 135°18'0 0.0
2018-Feb-16 23:28N 34°43' E 135°18'0 0.0
2018-Feb-16 22:58N 34°43' E 135°18'0 0.0
2018-Feb-16 22:28N 34°43' E 135°18'0 0.0
2018-Feb-16 21:58N 34°43' E 135°18'0 0.0
2018-Feb-16 21:28N 34°43' E 135°18'0 0.0
2018-Feb-16 20:58N 34°43' E 135°18'0 0.0
2018-Feb-16 20:28N 34°43' E 135°18'0 0.0
2018-Feb-16 19:55N 34°43' E 135°18'0 0.0
2018-Feb-16 19:28N 34°43' E 135°18'0 0.0
2018-Feb-16 18:58N 34°43' E 135°18'0 0.0
2018-Feb-16 18:28N 34°43' E 135°18'0 0.0
2018-Feb-16 17:58N 34°43' E 135°18'0 0.0
2018-Feb-16 17:28N 34°43' E 135°18'0 0.0
2018-Feb-16 16:55N 34°43' E 135°18'0 0.0
2018-Feb-16 16:25N 34°43' E 135°18'0 0.0
2018-Feb-16 15:58N 34°43' E 135°18'0 0.0
2018-Feb-16 15:28N 34°43' E 135°18'0 0.0
2018-Feb-16 14:58N 34°43' E 135°18'0 0.0
2018-Feb-16 14:28N 34°43' E 135°18'0 0.0
2018-Feb-16 13:58N 34°43' E 135°18'0 0.0
2018-Feb-16 13:28N 34°43' E 135°18'0 0.0
2018-Feb-16 12:58N 34°43' E 135°18'0 0.0
2018-Feb-16 12:28N 34°43' E 135°18'0 0.0
2018-Feb-16 11:58N 34°43' E 135°18'0 0.0
2018-Feb-16 11:28N 34°43' E 135°18'0 0.0
2018-Feb-16 10:55N 34°43' E 135°18'0 0.0
2018-Feb-16 10:28N 34°43' E 135°18'0 0.0
2018-Feb-16 09:58N 34°43' E 135°18'0 0.0
2018-Feb-16 09:28N 34°43' E 135°18'0 0.0
2018-Feb-16 08:58N 34°43' E 135°18'0 0.0
2018-Feb-16 08:28N 34°43' E 135°18'0 0.0
2018-Feb-16 07:58N 34°43' E 135°18'0 0.0
2018-Feb-16 07:28N 34°43' E 135°18'0 0.0
2018-Feb-16 06:58N 34°43' E 135°18'0 0.0
2018-Feb-16 06:28N 34°43' E 135°18'0 0.0
2018-Feb-16 05:55N 34°43' E 135°18'0 0.0
2018-Feb-16 05:28N 34°43' E 135°18'0 0.0
2018-Feb-16 04:55N 34°43' E 135°18'0 0.0
2018-Feb-16 04:28N 34°43' E 135°18'0 0.0
2018-Feb-16 03:58N 34°43' E 135°18'0 0.0
2018-Feb-16 03:28N 34°43' E 135°18'0 0.0
2018-Feb-16 02:58N 34°43' E 135°18'2 4.4
2018-Feb-16 02:30N 34°41' E 135°18'5 9.2
2018-Feb-16 02:00N 34°36' E 135°19'510.5
2018-Feb-16 01:30N 34°31' E 135°19'4 6.9
2018-Feb-16 00:57N 34°27' E 135°19'0 0.1
2018-Feb-16 00:30N 34°27' E 135°19'0 0.0
2018-Feb-16 00:00N 34°27' E 135°19'0 0.0
2018-Feb-15 23:17N 34°27' E 135°19'0 0.0
2018-Feb-15 22:59N 34°27' E 135°19'0 0.1
2018-Feb-15 22:29N 34°27' E 135°19'0 0.1
2018-Feb-15 22:00N 34°27' E 135°19'0 0.1
2018-Feb-15 21:27N 34°27' E 135°19'0 0.0
2018-Feb-15 20:59N 34°27' E 135°19'0 0.1
2018-Feb-15 20:29N 34°27' E 135°19'0 0.0
2018-Feb-15 19:56N 34°27' E 135°19'0 0.1
2018-Feb-15 19:30N 34°27' E 135°19'0 0.0
2018-Feb-15 18:59N 34°27' E 135°19'0 0.0
2018-Feb-15 18:26N 34°27' E 135°19'0 0.0
2018-Feb-15 17:57N 34°27' E 135°19'0 0.0
2018-Feb-15 17:27N 34°27' E 135°19'0 0.0
2018-Feb-15 16:56N 34°27' E 135°19'0 0.1
2018-Feb-15 16:29N 34°27' E 135°19'0 0.1
2018-Feb-15 15:59N 34°27' E 135°19'0 0.0
2018-Feb-15 15:29N 34°27' E 135°19'0 0.0
2018-Feb-15 14:59N 34°27' E 135°19'0 0.1
2018-Feb-15 14:29N 34°27' E 135°19'0 0.0
2018-Feb-15 13:59N 34°27' E 135°19'0 0.0
2018-Feb-15 13:29N 34°27' E 135°19'0 0.0
2018-Feb-15 12:57N 34°27' E 135°19'0 0.0
2018-Feb-15 12:29N 34°27' E 135°19'0 0.0
2018-Feb-15 11:56N 34°27' E 135°19'0 0.0
2018-Feb-15 11:29N 34°27' E 135°19'0 0.0
2018-Feb-15 10:59N 34°27' E 135°19'0 0.0
2018-Feb-15 10:29N 34°27' E 135°19'0 0.0
2018-Feb-15 09:59N 34°27' E 135°19'0 0.0
2018-Feb-15 09:29N 34°27' E 135°19'0 0.0
2018-Feb-15 08:59N 34°27' E 135°19'0 0.0
2018-Feb-15 08:29N 34°27' E 135°19'0 0.1
2018-Feb-15 07:59N 34°27' E 135°19'1 2.8
2018-Feb-15 07:30N 34°29' E 135°18'611.3
2018-Feb-15 07:00N 34°34' E 135°18'511.0
2018-Feb-15 06:31N 34°40' E 135°18'2 3.8
2018-Feb-15 05:58N 34°42' E 135°19'0 0.0
2018-Feb-15 05:28N 34°42' E 135°19'0 0.0
2018-Feb-15 04:58N 34°42' E 135°19'0 0.0
2018-Feb-15 04:28N 34°42' E 135°19'0 0.1
2018-Feb-15 04:00N 34°42' E 135°19'1 1.3
2018-Feb-15 03:28N 34°42' E 135°18'0 0.0
2018-Feb-15 02:58N 34°42' E 135°18'0 0.0
2018-Feb-15 02:28N 34°42' E 135°18'0 0.0
2018-Feb-15 01:58N 34°42' E 135°18'0 0.0
2018-Feb-15 01:28N 34°42' E 135°18'0 0.0
2018-Feb-15 00:58N 34°42' E 135°18'0 0.0
2018-Feb-15 00:28N 34°42' E 135°18'0 0.0
2018-Feb-14 23:58N 34°42' E 135°18'0 0.0
2018-Feb-14 23:28N 34°42' E 135°18'0 0.0
2018-Feb-14 22:58N 34°42' E 135°18'0 0.0
2018-Feb-14 22:28N 34°42' E 135°18'0 1.0
2018-Feb-14 22:00N 34°42' E 135°18'0 0.5
2018-Feb-14 21:28N 34°42' E 135°19'0 0.0
2018-Feb-14 20:58N 34°42' E 135°19'0 0.0
2018-Feb-14 20:28N 34°42' E 135°19'0 0.0
2018-Feb-14 19:58N 34°42' E 135°19'0 0.0
2018-Feb-14 19:28N 34°42' E 135°19'0 0.0
2018-Feb-14 18:58N 34°42' E 135°19'0 0.1
2018-Feb-14 18:28N 34°42' E 135°19'0 0.1
2018-Feb-14 17:58N 34°42' E 135°19'0 0.0
2018-Feb-14 17:28N 34°42' E 135°19'0 0.0
2018-Feb-14 16:58N 34°42' E 135°19'0 0.1
2018-Feb-14 16:28N 34°42' E 135°19'3 7.3
2018-Feb-14 16:00N 34°39' E 135°17'510.8
2018-Feb-14 15:30N 34°36' E 135°12'611.5
2018-Feb-14 15:00N 34°35' E 135°05'612.5
2018-Feb-14 14:30N 34°36' E 134°57'612.2
2018-Feb-14 14:00N 34°34' E 134°51'611.3
2018-Feb-14 13:30N 34°32' E 134°44'611.4
2018-Feb-14 13:00N 34°30' E 134°38'611.3
2018-Feb-14 12:30N 34°27' E 134°32'611.3
2018-Feb-14 12:00N 34°25' E 134°25'  

Dump ship's entire track history